createdAt,value
2023-04-07T00:01:26.284Z,65
2023-04-07T00:04:51.927Z,67
2023-04-07T00:08:17.473Z,66
2023-04-07T00:11:43.081Z,67
2023-04-07T00:15:08.758Z,66
2023-04-07T00:18:34.372Z,67
2023-04-07T00:21:59.982Z,66
2023-04-07T00:25:25.613Z,66
2023-04-07T00:28:51.326Z,65
2023-04-07T00:32:16.971Z,67
2023-04-07T00:35:42.686Z,66
2023-04-07T00:39:08.310Z,67
2023-04-07T00:42:33.996Z,66
2023-04-07T00:45:59.673Z,66
2023-04-07T00:49:25.378Z,66
2023-04-07T00:52:50.970Z,67
2023-04-07T00:56:16.587Z,67
2023-04-07T00:59:42.220Z,68
2023-04-07T01:03:08.040Z,68
2023-04-07T01:06:33.468Z,69
2023-04-07T01:09:59.119Z,70
2023-04-07T01:13:24.747Z,70
2023-04-07T01:16:50.612Z,68
2023-04-07T01:20:16.007Z,68
2023-04-07T01:23:41.672Z,68
2023-04-07T01:27:07.259Z,69
2023-04-07T01:30:32.904Z,69
2023-04-07T01:33:58.531Z,68
2023-04-07T01:37:24.193Z,67
2023-04-07T01:40:49.853Z,67
2023-04-07T01:44:15.485Z,67
2023-04-07T01:47:41.153Z,67
2023-04-07T01:51:06.687Z,67
2023-04-07T01:54:32.292Z,67
2023-04-07T01:57:57.879Z,67
2023-04-07T02:01:23.535Z,68
2023-04-07T02:04:49.078Z,68
2023-04-07T02:08:14.683Z,68
2023-04-07T02:11:40.316Z,67
2023-04-07T02:15:05.993Z,67
2023-04-07T02:18:31.585Z,68
2023-04-07T02:21:57.124Z,67
2023-04-07T02:25:22.756Z,67
2023-04-07T02:28:48.404Z,68
2023-04-07T02:32:14.016Z,68
2023-04-07T02:35:39.628Z,68
2023-04-07T02:39:05.232Z,68
2023-04-07T02:42:30.830Z,68
2023-04-07T02:45:56.496Z,68
2023-04-07T02:49:22.061Z,68
2023-04-07T02:52:47.648Z,68
2023-04-07T02:56:13.310Z,67
2023-04-07T02:59:38.928Z,66
2023-04-07T03:03:04.658Z,67
2023-04-07T03:06:30.186Z,67
2023-04-07T03:09:55.751Z,67
2023-04-07T03:13:21.359Z,68
2023-04-07T03:16:46.971Z,67
2023-04-07T03:20:12.613Z,68
2023-04-07T03:23:38.297Z,68
2023-04-07T03:27:03.914Z,68
2023-04-07T03:30:29.538Z,68
2023-04-07T03:33:55.121Z,68
2023-04-07T03:37:20.697Z,68
2023-04-07T03:40:46.336Z,68
2023-04-07T03:44:11.956Z,67
2023-04-07T03:47:37.632Z,66
2023-04-07T03:51:03.158Z,67
2023-04-07T03:54:28.711Z,68
2023-04-07T03:57:54.436Z,68
2023-04-07T04:01:19.876Z,68
2023-04-07T04:04:45.551Z,68
2023-04-07T04:08:11.219Z,68
2023-04-07T04:11:36.844Z,68
2023-04-07T04:15:02.557Z,68
2023-04-07T04:18:28.162Z,68
2023-04-07T04:21:53.820Z,68
2023-04-07T04:25:19.521Z,68
2023-04-07T04:28:45.117Z,68
2023-04-07T04:32:10.719Z,68
2023-04-07T04:35:36.392Z,68
2023-04-07T04:39:02.044Z,68
2023-04-07T04:42:27.710Z,68
2023-04-07T04:45:53.439Z,68
2023-04-07T04:49:19.186Z,69
2023-04-07T04:52:44.912Z,68
2023-04-07T04:56:10.604Z,69
2023-04-07T04:59:36.280Z,69
2023-04-07T05:03:02.186Z,69
2023-04-07T05:06:27.721Z,70
2023-04-07T05:09:53.339Z,69
2023-04-07T05:13:18.996Z,69
2023-04-07T05:16:44.763Z,69
2023-04-07T05:20:10.345Z,70
2023-04-07T05:23:36.026Z,70
2023-04-07T05:27:01.656Z,70
2023-04-07T05:30:27.275Z,70
2023-04-07T05:33:53.293Z,69
2023-04-07T05:37:18.663Z,70
2023-04-07T05:40:44.314Z,70
2023-04-07T05:44:09.959Z,71
2023-04-07T05:47:35.648Z,71
2023-04-07T05:51:01.293Z,70
2023-04-07T05:54:26.905Z,69
2023-04-07T05:57:52.637Z,70
2023-04-07T06:01:18.370Z,71
2023-04-07T06:04:44.187Z,69
2023-04-07T06:08:09.676Z,69
2023-04-07T06:11:35.076Z,68
2023-04-07T06:15:00.605Z,68
2023-04-07T06:18:26.243Z,66
2023-04-07T06:21:51.945Z,66
2023-04-07T06:25:17.503Z,65
2023-04-07T06:28:43.133Z,65
2023-04-07T06:32:08.762Z,67
2023-04-07T06:35:34.670Z,67
2023-04-07T06:39:00.469Z,68
2023-04-07T06:42:26.359Z,69
2023-04-07T06:45:52.089Z,68
2023-04-07T06:49:17.787Z,67
2023-04-07T06:52:43.434Z,61
2023-04-07T06:56:08.849Z,58
2023-04-07T06:59:34.321Z,62
2023-04-07T07:02:59.954Z,59
2023-04-07T07:06:25.515Z,59
2023-04-07T07:09:51.044Z,58
2023-04-07T07:13:18.653Z,58
2023-04-07T07:16:44.789Z,57
2023-04-07T07:20:10.615Z,59
2023-04-07T07:23:36.405Z,58
2023-04-07T07:27:02.278Z,59
2023-04-07T07:30:28.300Z,59
2023-04-07T07:33:56.428Z,58
2023-04-07T07:37:21.991Z,57
2023-04-07T07:40:48.140Z,56
2023-04-07T07:44:15.844Z,57
2023-04-07T07:47:42.520Z,58
2023-04-07T07:51:09.089Z,55
2023-04-07T07:54:36.109Z,55
2023-04-07T07:58:01.616Z,56
2023-04-07T08:01:27.071Z,57
2023-04-07T08:04:52.653Z,58
2023-04-07T08:08:18.203Z,57
2023-04-07T08:11:43.703Z,57
2023-04-07T08:15:09.159Z,56
2023-04-07T08:18:34.513Z,54
2023-04-07T08:21:59.803Z,54
2023-04-07T08:25:25.206Z,53
2023-04-07T08:28:50.531Z,51
2023-04-07T08:32:16.293Z,53
2023-04-07T08:35:41.644Z,47
2023-04-07T08:39:06.884Z,48
2023-04-07T08:42:32.304Z,47
2023-04-07T08:45:57.625Z,47
2023-04-07T08:49:23.025Z,47
2023-04-07T08:52:48.330Z,49
2023-04-07T08:56:13.628Z,46
2023-04-07T08:59:39.736Z,45
2023-04-07T09:03:05.423Z,46
2023-04-07T09:06:30.854Z,43
2023-04-07T09:09:56.320Z,45
2023-04-07T09:13:21.756Z,43
2023-04-07T09:16:47.242Z,42
2023-04-07T09:20:12.689Z,45
2023-04-07T09:23:38.204Z,43
2023-04-07T09:27:03.671Z,43
2023-04-07T09:30:29.190Z,43
2023-04-07T09:33:54.498Z,43
2023-04-07T09:37:19.843Z,44
2023-04-07T09:40:45.169Z,42
2023-04-07T09:44:10.436Z,41
2023-04-07T09:47:36.200Z,40
2023-04-07T09:51:01.847Z,41
2023-04-07T09:54:27.478Z,43
2023-04-07T09:57:53.260Z,39
2023-04-07T10:01:18.868Z,40
2023-04-07T10:04:44.521Z,40
2023-04-07T10:08:10.230Z,39
2023-04-07T10:11:35.958Z,40
2023-04-07T10:15:01.753Z,39
2023-04-07T10:18:27.497Z,41
2023-04-07T10:21:53.287Z,40
2023-04-07T10:25:19.137Z,34
2023-04-07T10:28:45.015Z,39
2023-04-07T10:32:10.881Z,39
2023-04-07T10:35:36.632Z,41
2023-04-07T10:39:02.434Z,39
2023-04-07T10:42:28.353Z,37
2023-04-07T10:45:54.457Z,38
2023-04-07T10:49:20.462Z,35
2023-04-07T10:52:46.390Z,38
2023-04-07T10:56:12.315Z,45
2023-04-07T10:59:39.105Z,44
2023-04-07T11:03:06.262Z,39
2023-04-07T11:06:33.315Z,40
2023-04-07T11:10:00.877Z,40
2023-04-07T11:13:28.579Z,40
2023-04-07T11:16:56.296Z,39
2023-04-07T11:20:24.133Z,40
2023-04-07T11:23:51.900Z,41
2023-04-07T11:27:19.294Z,41
2023-04-07T11:30:46.776Z,41
2023-04-07T11:34:13.914Z,43
2023-04-07T11:37:41.150Z,39
2023-04-07T11:41:08.708Z,38
2023-04-07T11:44:36.394Z,42
2023-04-07T11:48:04.074Z,39
2023-04-07T11:51:31.600Z,42
2023-04-07T11:55:02.028Z,40
2023-04-07T11:58:30.052Z,39
2023-04-07T12:01:58.160Z,42
2023-04-07T12:05:25.727Z,42
2023-04-07T12:08:53.698Z,43
2023-04-07T12:12:20.994Z,44
2023-04-07T12:15:48.906Z,39
2023-04-07T12:19:16.693Z,42
2023-04-07T12:22:44.443Z,42
2023-04-07T12:26:12.587Z,40
2023-04-07T12:29:40.199Z,41
2023-04-07T12:33:06.979Z,42
2023-04-07T12:36:32.590Z,42
2023-04-07T12:40:02.950Z,39
2023-04-07T12:43:34.922Z,39
2023-04-07T12:47:07.214Z,41
2023-04-07T12:50:39.339Z,39
2023-04-07T12:54:11.938Z,40
2023-04-07T12:57:44.070Z,41
2023-04-07T13:01:16.216Z,42
2023-04-07T13:04:48.635Z,41
2023-04-07T13:08:20.842Z,39
2023-04-07T13:11:53.471Z,41
2023-04-07T13:15:26.074Z,42
2023-04-07T13:18:58.809Z,41
2023-04-07T13:22:31.946Z,39
2023-04-07T13:26:04.684Z,40
2023-04-07T13:29:36.477Z,41
2023-04-07T13:33:09.064Z,40
2023-04-07T13:36:35.273Z,41
2023-04-07T13:40:01.450Z,40
2023-04-07T13:43:27.630Z,41
2023-04-07T13:46:53.770Z,40
2023-04-07T13:50:19.679Z,40
2023-04-07T13:53:45.627Z,43
2023-04-07T13:57:12.099Z,42
2023-04-07T14:00:38.898Z,40
2023-04-07T14:04:05.548Z,42
2023-04-07T14:07:32.090Z,41
2023-04-07T14:10:58.687Z,39
2023-04-07T14:14:25.562Z,39
2023-04-07T14:17:52.594Z,39
2023-04-07T14:21:18.866Z,42
2023-04-07T14:24:45.030Z,40
2023-04-07T14:28:11.427Z,41
2023-04-07T14:31:37.833Z,40
2023-04-07T14:35:04.153Z,40
2023-04-07T14:38:31.032Z,42
2023-04-07T14:41:57.069Z,43
2023-04-07T14:45:23.409Z,42
2023-04-07T14:48:49.834Z,44
2023-04-07T14:52:16.281Z,45
2023-04-07T14:55:42.913Z,43
2023-04-07T14:59:13.841Z,44
2023-04-07T15:02:40.489Z,44
2023-04-07T15:40:21.904Z,45
2023-04-07T15:43:47.214Z,45
2023-04-07T15:47:12.433Z,47
2023-04-07T15:50:37.668Z,45
2023-04-07T15:54:02.985Z,45
2023-04-07T15:57:28.293Z,46
2023-04-07T16:00:53.591Z,47
2023-04-07T16:04:18.887Z,49
2023-04-07T16:07:44.183Z,51
2023-04-07T16:11:09.482Z,53
2023-04-07T16:14:34.843Z,53
2023-04-07T16:18:00.111Z,52
2023-04-07T16:21:25.350Z,53
2023-04-07T16:24:50.617Z,54
2023-04-07T16:28:15.935Z,53
2023-04-07T16:31:41.274Z,54
2023-04-07T16:35:06.474Z,53
2023-04-07T16:38:31.753Z,53
2023-04-07T16:41:57.038Z,53
2023-04-07T16:45:22.306Z,52
2023-04-07T16:48:47.620Z,52
2023-04-07T16:52:12.877Z,53
2023-04-07T16:55:38.148Z,54
2023-04-07T16:59:04.032Z,53
2023-04-07T17:02:28.828Z,54
2023-04-07T17:05:55.690Z,53
2023-04-07T17:09:31.194Z,52
2023-04-07T17:13:02.487Z,53
2023-04-07T17:16:52.428Z,53
2023-04-07T17:20:37.045Z,53
2023-04-07T17:24:04.519Z,52
2023-04-07T17:27:31.148Z,53
2023-04-07T17:30:58.680Z,52
2023-04-07T17:34:25.615Z,53
2023-04-07T17:37:53.620Z,53
2023-04-07T17:41:22.161Z,53
2023-04-07T17:44:50.241Z,52
2023-04-07T17:48:18.139Z,53
2023-04-07T17:51:46.169Z,52
2023-04-07T17:55:14.176Z,53
2023-04-07T17:58:42.274Z,55
2023-04-07T18:02:10.581Z,54
2023-04-07T18:05:38.843Z,54
2023-04-07T18:09:08.223Z,55
2023-04-07T18:12:36.387Z,54
2023-04-07T18:16:04.567Z,53
2023-04-07T18:19:32.677Z,54
2023-04-07T18:23:00.673Z,54
2023-04-07T18:26:28.793Z,53
2023-04-07T18:29:56.612Z,53
2023-04-07T18:33:24.486Z,54
2023-04-07T18:36:52.185Z,55
2023-04-07T18:40:20.287Z,58
2023-04-07T18:43:48.594Z,55
2023-04-07T18:47:16.436Z,55
2023-04-07T18:50:44.461Z,56
2023-04-07T18:54:12.007Z,56
2023-04-07T18:57:39.596Z,55
2023-04-07T19:01:07.029Z,56
2023-04-07T19:04:34.536Z,56
2023-04-07T19:08:02.091Z,57
2023-04-07T19:11:29.425Z,57
2023-04-07T19:14:56.998Z,58
2023-04-07T19:18:24.411Z,57
2023-04-07T19:21:51.904Z,59
2023-04-07T19:25:19.553Z,60
2023-04-07T19:28:47.139Z,59
2023-04-07T19:32:14.700Z,59
2023-04-07T19:35:42.211Z,61
2023-04-07T19:39:09.676Z,62
2023-04-07T19:42:37.247Z,61
2023-04-07T19:46:05.427Z,62
2023-04-07T19:49:33.099Z,62
2023-04-07T19:52:59.688Z,63
2023-04-07T19:56:26.420Z,63
2023-04-07T19:59:52.776Z,64
2023-04-07T20:03:19.268Z,65
2023-04-07T20:06:45.582Z,66
2023-04-07T20:10:12.040Z,66
2023-04-07T20:13:38.477Z,66
2023-04-07T20:17:05.093Z,66
2023-04-07T20:20:31.620Z,65
2023-04-07T20:23:58.274Z,65
2023-04-07T20:27:24.867Z,65
2023-04-07T20:30:51.757Z,66
2023-04-07T20:34:18.532Z,65
2023-04-07T20:37:45.212Z,65
2023-04-07T20:41:11.827Z,66
2023-04-07T20:44:38.404Z,66
2023-04-07T20:48:05.017Z,67
2023-04-07T20:51:31.599Z,67
2023-04-07T20:54:58.370Z,68
2023-04-07T20:58:25.129Z,69
2023-04-07T21:01:52.170Z,69
2023-04-07T21:05:18.900Z,70
2023-04-07T21:08:45.987Z,70
2023-04-07T21:12:12.756Z,67
2023-04-07T21:15:39.788Z,66
2023-04-07T21:19:06.642Z,66
2023-04-07T21:22:33.598Z,64
2023-04-07T21:26:00.474Z,63
2023-04-07T21:29:27.215Z,62
2023-04-07T21:32:54.171Z,62
2023-04-07T21:36:21.150Z,63
2023-04-07T21:39:48.149Z,64
2023-04-07T21:43:14.817Z,64
2023-04-07T21:46:41.401Z,64
2023-04-07T21:50:08.115Z,64
2023-04-07T21:53:34.931Z,64
2023-04-07T21:57:01.792Z,64
2023-04-07T22:00:28.675Z,64
2023-04-07T22:03:55.508Z,64
2023-04-07T22:07:22.188Z,65
2023-04-07T22:10:48.895Z,65
2023-04-07T22:14:15.711Z,65
2023-04-07T22:17:42.533Z,64
2023-04-07T22:21:09.264Z,65
2023-04-07T22:24:36.290Z,65
2023-04-07T22:28:03.207Z,65
2023-04-07T22:31:30.088Z,65
2023-04-07T22:34:57.044Z,64
2023-04-07T22:38:23.767Z,65
2023-04-07T22:41:50.571Z,65
2023-04-07T22:45:17.213Z,65
2023-04-07T22:48:43.951Z,66
2023-04-07T22:52:10.532Z,66
2023-04-07T22:55:37.152Z,66
2023-04-07T22:59:03.904Z,66
2023-04-07T23:02:30.518Z,66
2023-04-07T23:05:57.039Z,66
2023-04-07T23:09:23.630Z,67
2023-04-07T23:12:50.302Z,67
2023-04-07T23:16:17.025Z,67
2023-04-07T23:19:43.860Z,67
2023-04-07T23:23:10.648Z,67
2023-04-07T23:26:37.507Z,66
2023-04-07T23:30:04.316Z,66
2023-04-07T23:33:30.976Z,66
2023-04-07T23:36:57.779Z,65
2023-04-07T23:40:24.419Z,65
2023-04-07T23:43:51.192Z,65
2023-04-07T23:47:17.850Z,65
2023-04-07T23:50:44.462Z,66
2023-04-07T23:54:11.018Z,66
2023-04-07T23:57:37.642Z,66
